createdAt,value
2023-05-10T00:00:19.561Z,11.71
2023-05-10T00:01:21.267Z,11.76
2023-05-10T00:02:22.774Z,11.75
2023-05-10T00:03:24.678Z,11.76
2023-05-10T00:04:28.410Z,11.77
2023-05-10T00:05:32.565Z,11.79
2023-05-10T00:06:36.584Z,11.81
2023-05-10T00:07:38.195Z,11.73
2023-05-10T00:08:39.685Z,11.72
2023-05-10T00:09:41.241Z,11.72
2023-05-10T00:10:42.764Z,11.76
2023-05-10T00:11:44.263Z,11.78
2023-05-10T00:12:45.776Z,11.83
2023-05-10T00:13:47.387Z,11.79
2023-05-10T00:14:48.880Z,11.78
2023-05-10T00:15:50.435Z,11.75
2023-05-10T00:16:52.130Z,11.76
2023-05-10T00:17:53.742Z,11.76
2023-05-10T00:18:55.444Z,11.75
2023-05-10T00:19:57.120Z,11.75
2023-05-10T00:21:01.027Z,11.76
2023-05-10T00:22:02.785Z,11.76
2023-05-10T00:23:04.413Z,11.77
2023-05-10T00:24:06.057Z,11.78
2023-05-10T00:25:07.974Z,11.76
2023-05-10T00:26:09.505Z,11.76
2023-05-10T00:27:13.053Z,11.78
2023-05-10T00:28:14.730Z,11.80
2023-05-10T00:29:16.240Z,11.81
2023-05-10T00:30:18.105Z,11.79
2023-05-10T00:31:22.060Z,11.78
2023-05-10T00:32:23.854Z,11.81
2023-05-10T00:33:27.934Z,11.81
2023-05-10T00:34:29.366Z,11.59
2023-05-10T00:35:33.176Z,11.69
2023-05-10T00:36:37.711Z,11.75
2023-05-10T00:37:39.179Z,11.76
2023-05-10T00:38:41.411Z,11.74
2023-05-10T00:39:42.854Z,11.79
2023-05-10T00:40:44.950Z,11.78
2023-05-10T00:41:53.875Z,11.75
2023-05-10T00:42:55.506Z,11.74
2023-05-10T00:43:57.066Z,11.75
2023-05-10T00:44:58.900Z,11.75
2023-05-10T00:46:03.730Z,11.73
2023-05-10T00:47:05.238Z,11.75
2023-05-10T00:48:06.830Z,11.73
2023-05-10T00:49:10.501Z,11.68
2023-05-10T00:50:12.077Z,11.63
2023-05-10T00:51:14.346Z,11.58
2023-05-10T00:52:18.358Z,11.53
2023-05-10T00:53:19.994Z,11.46
2023-05-10T00:54:21.695Z,11.46
2023-05-10T00:55:23.241Z,11.44
2023-05-10T00:56:25.691Z,11.39
2023-05-10T00:57:27.460Z,11.39
2023-05-10T00:58:29.362Z,11.37
2023-05-10T00:59:31.047Z,11.37
2023-05-10T01:00:35.766Z,11.36
2023-05-10T01:01:39.870Z,11.35
2023-05-10T01:02:41.450Z,11.36
2023-05-10T01:03:43.652Z,11.35
2023-05-10T01:04:48.399Z,11.33
2023-05-10T01:05:50.752Z,11.28
2023-05-10T01:06:54.427Z,11.30
2023-05-10T01:07:57.052Z,11.30
2023-05-10T01:08:58.743Z,11.32
2023-05-10T01:10:00.858Z,11.34
2023-05-10T01:11:03.327Z,11.34
2023-05-10T01:12:07.807Z,11.37
2023-05-10T01:13:10.120Z,11.37
2023-05-10T01:14:18.074Z,11.34
2023-05-10T01:15:21.249Z,11.34
2023-05-10T01:16:23.246Z,11.33
2023-05-10T01:17:25.368Z,11.27
2023-05-10T01:18:27.878Z,11.25
2023-05-10T01:19:30.581Z,11.24
2023-05-10T01:20:37.125Z,11.26
2023-05-10T01:21:43.904Z,11.19
2023-05-10T01:23:04.212Z,11.20
2023-05-10T01:24:29.840Z,11.23
2023-05-10T01:26:04.776Z,11.15
2023-05-10T01:27:24.479Z,11.10
2023-05-10T01:28:38.373Z,11.08
2023-05-10T01:30:14.066Z,11.05
2023-05-10T01:31:37.480Z,11.04
2023-05-10T01:32:48.266Z,11.03
2023-05-10T01:34:10.088Z,11.03
2023-05-10T01:35:20.135Z,11.01
2023-05-10T01:36:28.404Z,11.05
2023-05-10T01:37:50.176Z,11.03
2023-05-10T01:38:54.560Z,11.07
2023-05-10T01:39:59.208Z,11.05
2023-05-10T01:41:19.116Z,11.08
2023-05-10T01:42:41.983Z,11.09
2023-05-10T01:43:46.506Z,11.07
2023-05-10T01:45:08.142Z,11.07
2023-05-10T01:46:20.045Z,11.08
2023-05-10T01:47:26.993Z,11.07
2023-05-10T01:48:29.605Z,11.09
2023-05-10T01:49:33.080Z,11.06
2023-05-10T01:50:36.466Z,11.05
2023-05-10T01:51:45.284Z,11.06
2023-05-10T01:52:51.007Z,11.06
2023-05-10T01:53:57.997Z,11.05
2023-05-10T01:55:17.091Z,11.06
2023-05-10T01:56:24.052Z,11.06
2023-05-10T01:57:28.811Z,11.08
2023-05-10T01:58:32.541Z,11.04
2023-05-10T01:59:37.965Z,11.01
2023-05-10T02:00:42.867Z,11.03
2023-05-10T02:01:46.045Z,11.00
2023-05-10T02:02:49.918Z,10.98
2023-05-10T02:03:53.033Z,10.92
2023-05-10T02:04:56.259Z,10.90
2023-05-10T02:05:58.454Z,10.89
2023-05-10T02:07:00.062Z,10.89
2023-05-10T02:08:04.755Z,10.90
2023-05-10T02:09:06.966Z,10.91
2023-05-10T02:10:09.210Z,10.91
2023-05-10T02:11:13.383Z,10.92
2023-05-10T02:12:16.519Z,10.92
2023-05-10T02:13:19.056Z,10.91
2023-05-10T02:14:21.198Z,10.94
2023-05-10T02:15:24.701Z,10.90
2023-05-10T02:16:28.215Z,10.90
2023-05-10T02:17:31.481Z,10.91
2023-05-10T02:18:34.298Z,10.86
2023-05-10T02:19:41.839Z,10.88
2023-05-10T02:20:46.357Z,10.89
2023-05-10T02:21:48.232Z,10.89
2023-05-10T02:22:51.708Z,10.90
2023-05-10T02:23:54.375Z,10.89
2023-05-10T02:24:56.782Z,10.91
2023-05-10T02:25:59.832Z,10.93
2023-05-10T02:27:03.247Z,10.94
2023-05-10T02:28:06.588Z,10.95
2023-05-10T02:29:09.139Z,10.93
2023-05-10T02:30:11.235Z,10.94
2023-05-10T02:31:13.140Z,10.95
2023-05-10T02:32:15.511Z,10.95
2023-05-10T02:33:17.833Z,10.94
2023-05-10T02:34:22.338Z,10.94
2023-05-10T02:35:24.430Z,10.96
2023-05-10T02:36:28.413Z,10.97
2023-05-10T02:37:29.941Z,11.01
2023-05-10T02:38:32.492Z,11.02
2023-05-10T02:39:34.082Z,11.04
2023-05-10T02:40:36.572Z,11.08
2023-05-10T02:41:38.373Z,11.07
2023-05-10T02:42:43.141Z,11.07
2023-05-10T02:43:50.617Z,11.06
2023-05-10T02:44:54.296Z,11.08
2023-05-10T02:45:55.846Z,11.05
2023-05-10T02:46:58.066Z,11.05
2023-05-10T02:48:00.426Z,11.03
2023-05-10T02:49:02.117Z,11.04
2023-05-10T02:50:04.205Z,10.99
2023-05-10T02:51:09.038Z,10.95
2023-05-10T02:52:11.195Z,10.91
2023-05-10T02:53:17.068Z,10.87
2023-05-10T02:54:28.323Z,10.86
2023-05-10T02:55:33.707Z,10.85
2023-05-10T02:56:36.867Z,10.87
2023-05-10T02:57:41.833Z,10.87
2023-05-10T02:58:43.380Z,10.86
2023-05-10T02:59:46.037Z,10.85
2023-05-10T03:00:49.870Z,10.82
2023-05-10T03:01:51.439Z,10.81
2023-05-10T03:02:53.768Z,10.79
2023-05-10T03:03:55.456Z,10.79
2023-05-10T03:04:57.162Z,10.74
2023-05-10T03:06:01.761Z,10.71
2023-05-10T03:07:03.523Z,10.73
2023-05-10T03:08:05.776Z,10.73
2023-05-10T03:09:08.759Z,10.74
2023-05-10T03:10:11.758Z,10.76
2023-05-10T03:11:15.499Z,10.71
2023-05-10T03:12:17.164Z,10.72
2023-05-10T03:13:24.546Z,10.72
2023-05-10T03:14:32.128Z,10.75
2023-05-10T03:15:36.538Z,10.75
2023-05-10T03:16:47.995Z,10.75
2023-05-10T03:18:18.621Z,10.77
2023-05-10T03:19:28.566Z,10.76
2023-05-10T03:20:36.263Z,10.84
2023-05-10T03:21:39.058Z,10.79
2023-05-10T03:22:48.773Z,10.78
2023-05-10T03:24:00.313Z,10.78
2023-05-10T03:25:05.394Z,10.81
2023-05-10T03:26:07.407Z,10.68
2023-05-10T03:27:09.300Z,10.72
2023-05-10T03:28:11.357Z,10.72
2023-05-10T03:29:14.835Z,10.78
2023-05-10T03:30:17.414Z,10.79
2023-05-10T03:31:19.582Z,10.81
2023-05-10T03:32:23.556Z,10.81
2023-05-10T03:33:25.288Z,10.83
2023-05-10T03:34:27.002Z,10.87
2023-05-10T03:35:28.624Z,10.87
2023-05-10T03:36:30.187Z,10.88
2023-05-10T03:37:35.010Z,10.89
2023-05-10T03:38:36.716Z,10.90
2023-05-10T03:39:38.390Z,10.91
2023-05-10T03:40:42.324Z,10.91
2023-05-10T03:41:46.470Z,10.93
2023-05-10T03:42:47.982Z,10.90
2023-05-10T03:43:49.533Z,10.89
2023-05-10T03:44:51.184Z,10.87
2023-05-10T03:45:52.792Z,10.71
2023-05-10T03:46:54.571Z,10.80
2023-05-10T03:47:56.307Z,10.81
2023-05-10T03:48:57.818Z,10.81
2023-05-10T03:50:01.453Z,10.81
2023-05-10T03:51:03.122Z,10.82
2023-05-10T03:52:06.292Z,10.82
2023-05-10T03:53:07.872Z,10.84
2023-05-10T03:54:09.475Z,10.85
2023-05-10T03:55:13.571Z,10.85
2023-05-10T03:56:15.034Z,10.86
2023-05-10T03:57:16.603Z,10.82
2023-05-10T03:58:18.175Z,10.84
2023-05-10T03:59:19.693Z,10.85
2023-05-10T04:00:21.449Z,10.84
2023-05-10T04:01:26.008Z,10.78
2023-05-10T04:02:27.829Z,10.77
2023-05-10T04:03:29.606Z,10.78
2023-05-10T04:04:31.390Z,10.77
2023-05-10T04:05:33.477Z,10.78
2023-05-10T04:06:35.132Z,10.78
2023-05-10T04:07:37.062Z,10.74
2023-05-10T04:08:38.931Z,10.76
2023-05-10T04:09:41.780Z,10.77
2023-05-10T04:10:43.321Z,10.77
2023-05-10T04:11:44.822Z,10.78
2023-05-10T04:12:46.367Z,10.80
2023-05-10T04:13:47.890Z,10.85
2023-05-10T04:14:49.380Z,10.79
2023-05-10T04:15:50.873Z,10.77
2023-05-10T04:16:52.349Z,10.76
2023-05-10T04:17:54.571Z,10.74
2023-05-10T04:18:56.244Z,10.73
2023-05-10T04:19:57.812Z,10.72
2023-05-10T04:21:01.702Z,10.76
2023-05-10T04:22:03.428Z,10.74
2023-05-10T04:23:07.228Z,10.74
2023-05-10T04:24:08.691Z,10.68
2023-05-10T04:25:10.374Z,10.72
2023-05-10T04:26:11.817Z,10.75
2023-05-10T04:27:15.411Z,10.69
2023-05-10T04:28:16.995Z,10.74
2023-05-10T04:29:21.377Z,10.68
2023-05-10T04:32:45.789Z,10.62
2023-05-10T04:33:47.457Z,10.58
2023-05-10T04:34:54.590Z,10.56
2023-05-10T04:35:56.157Z,10.61
2023-05-10T04:36:57.648Z,10.55
2023-05-10T04:37:59.167Z,10.61
2023-05-10T04:39:00.710Z,10.55
2023-05-10T04:40:02.213Z,10.54
2023-05-10T04:41:10.466Z,10.53
2023-05-10T04:42:12.420Z,10.56
2023-05-10T04:43:14.118Z,10.50
2023-05-10T04:44:20.026Z,10.52
2023-05-10T04:45:21.606Z,10.52
2023-05-10T04:46:23.181Z,10.53
2023-05-10T04:47:24.786Z,10.55
2023-05-10T04:48:26.643Z,10.52
2023-05-10T04:49:28.219Z,10.53
2023-05-10T04:50:29.733Z,10.51
2023-05-10T04:51:32.290Z,10.50
2023-05-10T04:52:33.768Z,10.53
2023-05-10T04:53:35.286Z,10.53
2023-05-10T04:54:36.795Z,10.55
2023-05-10T04:55:38.309Z,10.49
2023-05-10T04:56:39.786Z,10.51
2023-05-10T04:57:41.301Z,10.58
2023-05-10T04:58:42.836Z,10.57
2023-05-10T04:59:44.337Z,10.59
2023-05-10T05:00:45.908Z,10.58
2023-05-10T05:01:49.881Z,10.53
2023-05-10T05:02:51.426Z,10.56
2023-05-10T05:03:53.979Z,10.57
2023-05-10T05:04:56.897Z,10.59
2023-05-10T05:05:58.402Z,10.63
2023-05-10T05:06:59.977Z,10.64
2023-05-10T05:08:01.759Z,10.69
2023-05-10T05:09:03.554Z,10.68
2023-05-10T05:10:10.803Z,10.68
2023-05-10T05:11:14.749Z,10.74
2023-05-10T05:12:16.250Z,10.71
2023-05-10T05:13:17.914Z,10.77
2023-05-10T05:14:21.786Z,10.75
2023-05-10T05:15:23.358Z,10.68
2023-05-10T05:16:24.908Z,10.63
2023-05-10T05:17:26.713Z,10.58
2023-05-10T05:18:28.188Z,10.67
2023-05-10T05:19:31.840Z,10.73
2023-05-10T05:20:35.904Z,10.72
2023-05-10T05:21:40.704Z,10.74
2023-05-10T05:22:44.656Z,10.75
2023-05-10T05:23:46.646Z,10.75
2023-05-10T05:24:48.134Z,10.77
2023-05-10T05:25:49.585Z,10.81
2023-05-10T05:26:51.088Z,10.82
2023-05-10T05:27:52.603Z,10.80
2023-05-10T05:28:55.567Z,10.77
2023-05-10T05:29:57.716Z,10.71
2023-05-10T05:30:59.183Z,10.61
2023-05-10T05:32:00.872Z,10.45
2023-05-10T05:33:02.455Z,10.58
2023-05-10T05:34:04.012Z,10.59
2023-05-10T05:35:06.810Z,10.64
2023-05-10T05:36:08.452Z,10.59
2023-05-10T05:37:13.291Z,10.53
2023-05-10T05:38:15.122Z,10.44
2023-05-10T05:39:16.869Z,10.47
2023-05-10T05:40:21.445Z,10.52
2023-05-10T05:41:23.428Z,10.60
2023-05-10T05:42:24.982Z,10.60
2023-05-10T05:43:26.659Z,10.61
2023-05-10T05:44:29.836Z,10.51
2023-05-10T05:45:31.432Z,10.43
2023-05-10T05:46:32.954Z,10.45
2023-05-10T05:47:34.584Z,10.44
2023-05-10T05:48:38.258Z,10.49
2023-05-10T05:49:40.315Z,10.53
2023-05-10T05:50:41.876Z,10.50
2023-05-10T05:51:45.949Z,10.49
2023-05-10T05:52:47.458Z,10.42
2023-05-10T05:53:48.987Z,10.42
2023-05-10T05:54:50.461Z,10.46
2023-05-10T05:55:53.113Z,10.48
2023-05-10T05:56:56.330Z,10.46
2023-05-10T05:57:58.192Z,10.47
2023-05-10T05:58:59.694Z,10.45
2023-05-10T06:00:01.364Z,10.47
2023-05-10T06:01:05.194Z,10.46
2023-05-10T06:02:09.823Z,10.49
2023-05-10T06:03:11.677Z,10.50
2023-05-10T06:04:18.433Z,10.47
2023-05-10T06:05:22.735Z,10.52
2023-05-10T06:06:26.918Z,10.50
2023-05-10T06:07:28.464Z,10.50
2023-05-10T06:08:29.969Z,10.53
2023-05-10T06:09:31.608Z,10.53
2023-05-10T06:10:35.475Z,10.53
2023-05-10T06:11:37.427Z,10.56
2023-05-10T06:12:39.001Z,10.59
2023-05-10T06:13:40.557Z,10.64
2023-05-10T06:14:42.214Z,10.51
2023-05-10T06:15:43.891Z,10.53
2023-05-10T06:16:45.815Z,10.55
2023-05-10T06:17:48.238Z,10.53
2023-05-10T06:18:49.911Z,10.58
2023-05-10T06:19:54.111Z,10.53
2023-05-10T06:20:55.626Z,10.58
2023-05-10T06:21:57.281Z,10.54
2023-05-10T06:22:59.169Z,10.52
2023-05-10T06:24:00.758Z,10.52
2023-05-10T06:25:03.103Z,10.49
2023-05-10T06:26:04.861Z,10.41
2023-05-10T06:27:06.923Z,10.51
2023-05-10T06:28:08.450Z,10.52
2023-05-10T06:29:09.926Z,10.58
2023-05-10T06:30:16.171Z,10.58
2023-05-10T06:31:18.182Z,10.60
2023-05-10T06:32:19.701Z,10.65
2023-05-10T06:33:21.147Z,10.61
2023-05-10T06:34:22.703Z,10.63
2023-05-10T06:35:24.278Z,10.66
2023-05-10T06:36:27.289Z,10.69
2023-05-10T06:37:32.581Z,10.65
2023-05-10T06:38:36.509Z,10.67
2023-05-10T06:39:37.940Z,10.71
2023-05-10T06:40:44.823Z,10.74
2023-05-10T06:41:48.554Z,10.75
2023-05-10T06:42:50.150Z,10.77
2023-05-10T06:43:52.763Z,10.81
2023-05-10T06:44:54.265Z,10.80
2023-05-10T06:45:55.959Z,10.82
2023-05-10T06:46:57.571Z,10.84
2023-05-10T06:47:59.255Z,10.88
2023-05-10T06:49:00.904Z,10.88
2023-05-10T06:50:04.916Z,10.91
2023-05-10T06:51:06.603Z,10.92
2023-05-10T06:52:08.717Z,10.96
2023-05-10T06:53:10.386Z,10.99
2023-05-10T06:54:11.814Z,11.04
2023-05-10T06:55:13.504Z,11.08
2023-05-10T06:56:15.559Z,11.11
2023-05-10T06:57:30.545Z,11.10
2023-05-10T06:58:33.749Z,11.13
2023-05-10T06:59:35.457Z,11.07
2023-05-10T07:00:41.299Z,11.07
2023-05-10T07:01:43.085Z,11.11
2023-05-10T07:02:44.805Z,11.11
2023-05-10T07:03:46.426Z,11.12
2023-05-10T07:04:48.403Z,11.13
2023-05-10T07:05:49.918Z,11.11
2023-05-10T07:06:51.660Z,11.05
2023-05-10T07:07:53.228Z,11.05
2023-05-10T07:08:54.856Z,11.08
2023-05-10T07:09:57.522Z,11.11
2023-05-10T07:11:05.697Z,11.11
2023-05-10T07:12:10.268Z,11.19
2023-05-10T07:13:12.778Z,11.17
2023-05-10T07:14:14.372Z,11.19
2023-05-10T07:15:17.230Z,11.20
2023-05-10T07:16:19.090Z,11.16
2023-05-10T07:17:20.703Z,11.15
2023-05-10T07:18:25.831Z,11.14
2023-05-10T07:19:27.547Z,11.16
2023-05-10T07:20:29.077Z,11.18
2023-05-10T07:21:30.799Z,11.24
2023-05-10T07:22:32.312Z,11.29
2023-05-10T07:23:33.892Z,11.34
2023-05-10T07:24:35.463Z,11.33
2023-05-10T07:25:39.180Z,11.40
2023-05-10T07:26:43.159Z,11.40
2023-05-10T07:27:49.408Z,11.42
2023-05-10T07:28:51.117Z,11.40
2023-05-10T07:29:52.614Z,11.41
2023-05-10T07:30:54.133Z,11.44
2023-05-10T07:31:58.499Z,11.48
2023-05-10T07:33:00.580Z,11.45
2023-05-10T07:34:02.198Z,11.53
2023-05-10T07:35:04.334Z,11.50
2023-05-10T07:36:05.891Z,11.49
2023-05-10T07:37:12.504Z,11.53
2023-05-10T07:38:14.008Z,11.49
2023-05-10T07:39:21.353Z,11.51
2023-05-10T07:40:31.268Z,11.57
2023-05-10T07:41:35.106Z,11.63
2023-05-10T07:42:37.247Z,11.71
2023-05-10T07:43:38.964Z,11.65
2023-05-10T07:44:40.417Z,11.71
2023-05-10T07:45:42.069Z,11.51
2023-05-10T07:46:43.660Z,11.52
2023-05-10T07:47:45.145Z,11.56
2023-05-10T07:48:49.002Z,11.62
2023-05-10T07:49:50.499Z,11.66
2023-05-10T07:50:52.047Z,11.58
2023-05-10T07:51:53.548Z,11.63
2023-05-10T07:52:55.386Z,11.66
2023-05-10T07:53:57.871Z,11.81
2023-05-10T07:54:59.415Z,11.92
2023-05-10T07:56:20.671Z,12.01
2023-05-10T07:57:22.155Z,12.11
2023-05-10T07:58:23.661Z,12.25
2023-05-10T07:59:25.376Z,12.29
2023-05-10T08:00:26.809Z,12.43
2023-05-10T08:01:31.614Z,12.48
2023-05-10T08:02:36.156Z,12.43
2023-05-10T08:03:37.786Z,12.54
2023-05-10T08:04:41.797Z,12.64
2023-05-10T08:05:43.513Z,12.71
2023-05-10T08:06:44.970Z,12.74
2023-05-10T08:07:46.413Z,12.76
2023-05-10T08:08:50.461Z,12.78
2023-05-10T08:09:51.983Z,12.83
2023-05-10T08:10:53.423Z,12.92
2023-05-10T08:11:55.018Z,12.91
2023-05-10T08:12:59.722Z,12.95
2023-05-10T08:14:01.224Z,13.03
2023-05-10T08:15:02.945Z,13.11
2023-05-10T08:16:04.500Z,13.15
2023-05-10T08:17:06.274Z,13.24
2023-05-10T08:18:07.891Z,13.34
2023-05-10T08:19:09.624Z,13.38
2023-05-10T08:20:13.893Z,13.39
2023-05-10T08:21:15.924Z,13.32
2023-05-10T08:22:17.539Z,13.38
2023-05-10T08:23:21.607Z,13.31
2023-05-10T08:24:23.365Z,13.36
2023-05-10T08:25:25.136Z,13.41
2023-05-10T08:26:28.977Z,13.33
2023-05-10T08:27:30.754Z,13.28
2023-05-10T08:28:32.247Z,13.16
2023-05-10T08:29:46.251Z,13.22
2023-05-10T08:30:51.456Z,13.25
2023-05-10T08:31:52.934Z,13.28
2023-05-10T08:32:54.579Z,13.27
2023-05-10T08:33:58.330Z,13.10
2023-05-10T08:34:59.765Z,13.07
2023-05-10T08:36:01.240Z,12.77
2023-05-10T08:37:02.793Z,12.66
2023-05-10T08:38:04.401Z,12.30
2023-05-10T08:39:11.200Z,12.60
2023-05-10T08:40:20.020Z,12.55
2023-05-10T08:41:22.376Z,12.50
2023-05-10T08:42:26.833Z,12.59
2023-05-10T08:43:32.535Z,12.52
2023-05-10T08:44:36.172Z,12.46
2023-05-10T08:45:41.800Z,12.58
2023-05-10T08:46:45.870Z,12.59
2023-05-10T08:47:49.851Z,12.53
2023-05-10T08:48:53.023Z,12.61
2023-05-10T08:49:55.267Z,12.49
2023-05-10T08:50:58.620Z,12.42
2023-05-10T08:52:02.932Z,12.50
2023-05-10T08:53:16.574Z,12.50
2023-05-10T08:54:18.383Z,12.56
2023-05-10T08:55:19.984Z,12.67
2023-05-10T08:56:21.927Z,12.78
2023-05-10T08:57:23.517Z,12.71
2023-05-10T08:58:27.466Z,12.76
2023-05-10T08:59:32.053Z,12.77
2023-05-10T09:00:34.106Z,12.83
2023-05-10T09:01:37.480Z,12.85
2023-05-10T09:02:39.154Z,12.81
2023-05-10T09:03:44.137Z,12.95
2023-05-10T09:04:45.853Z,13.13
2023-05-10T09:05:47.813Z,13.11
2023-05-10T09:06:49.366Z,13.13
2023-05-10T09:07:53.013Z,13.17
2023-05-10T09:08:54.752Z,13.13
2023-05-10T09:09:56.526Z,13.18
2023-05-10T09:10:58.208Z,13.35
2023-05-10T09:11:59.836Z,13.45
2023-05-10T09:13:04.502Z,13.39
2023-05-10T09:14:06.034Z,13.55
2023-05-10T09:15:08.875Z,13.63
2023-05-10T09:16:21.090Z,13.63
2023-05-10T09:17:24.841Z,13.65
2023-05-10T09:18:28.737Z,13.51
2023-05-10T09:19:30.373Z,13.61
2023-05-10T09:20:32.197Z,13.58
2023-05-10T09:21:34.964Z,13.47
2023-05-10T09:22:36.704Z,13.57
2023-05-10T09:23:38.174Z,13.68
2023-05-10T09:24:43.408Z,13.64
2023-05-10T09:25:47.471Z,13.53
2023-05-10T09:26:49.524Z,13.53
2023-05-10T09:27:51.144Z,13.51
2023-05-10T09:28:52.565Z,13.56
2023-05-10T09:29:56.747Z,13.53
2023-05-10T09:30:58.445Z,13.49
2023-05-10T09:32:00.132Z,13.50
2023-05-10T09:33:04.562Z,13.49
2023-05-10T09:34:06.557Z,13.50
2023-05-10T09:35:12.264Z,13.32
2023-05-10T09:36:14.351Z,13.38
2023-05-10T09:37:15.903Z,13.39
2023-05-10T09:38:17.399Z,13.47
2023-05-10T09:39:19.040Z,13.58
2023-05-10T09:40:21.548Z,13.66
2023-05-10T09:41:24.123Z,13.66
2023-05-10T09:42:25.599Z,13.76
2023-05-10T09:43:28.207Z,13.77
2023-05-10T09:44:29.793Z,13.73
2023-05-10T09:45:37.002Z,13.85
2023-05-10T09:46:40.296Z,13.81
2023-05-10T09:47:41.900Z,13.86
2023-05-10T09:48:44.974Z,13.86
2023-05-10T09:49:53.599Z,13.94
2023-05-10T09:50:58.326Z,13.96
2023-05-10T09:52:03.909Z,14.03
2023-05-10T09:53:05.541Z,14.08
2023-05-10T09:54:16.784Z,14.14
2023-05-10T09:55:38.241Z,14.20
2023-05-10T09:56:41.404Z,14.21
2023-05-10T09:57:43.010Z,13.95
2023-05-10T09:58:44.620Z,14.12
2023-05-10T09:59:46.224Z,13.98
2023-05-10T10:00:52.518Z,14.10
2023-05-10T10:01:56.652Z,14.21
2023-05-10T10:02:59.501Z,14.15
2023-05-10T10:04:03.751Z,14.12
2023-05-10T10:05:09.886Z,14.06
2023-05-10T10:06:22.885Z,14.15
2023-05-10T10:07:31.341Z,14.15
2023-05-10T10:08:35.901Z,14.21
2023-05-10T10:09:37.582Z,14.19
2023-05-10T10:10:41.114Z,14.09
2023-05-10T10:11:42.622Z,14.18
2023-05-10T10:12:45.515Z,14.19
2023-05-10T10:13:49.831Z,14.09
2023-05-10T10:14:51.872Z,13.97
2023-05-10T10:15:55.280Z,13.90
2023-05-10T10:17:07.270Z,13.77
2023-05-10T10:18:16.677Z,13.88
2023-05-10T10:19:21.885Z,13.86
2023-05-10T10:20:23.663Z,13.71
2023-05-10T10:21:27.770Z,13.54
2023-05-10T10:22:29.465Z,13.83
2023-05-10T10:23:31.156Z,13.87
2023-05-10T10:24:32.749Z,13.48
2023-05-10T10:25:34.391Z,13.62
2023-05-10T10:26:37.203Z,13.82
2023-05-10T10:27:54.086Z,13.82
2023-05-10T10:28:55.656Z,13.93
2023-05-10T10:29:57.323Z,13.87
2023-05-10T10:31:04.752Z,13.93
2023-05-10T10:32:25.117Z,13.82
2023-05-10T10:33:28.722Z,13.81
2023-05-10T10:34:33.394Z,13.97
2023-05-10T10:35:35.351Z,13.91
2023-05-10T10:36:46.723Z,13.80
2023-05-10T10:37:48.958Z,13.92
2023-05-10T10:38:54.414Z,14.07
2023-05-10T10:39:56.356Z,13.76
2023-05-10T10:41:08.860Z,13.97
2023-05-10T10:42:12.831Z,14.19
2023-05-10T10:43:23.083Z,14.24
2023-05-10T10:44:25.978Z,14.42
2023-05-10T10:45:27.842Z,14.30
2023-05-10T10:46:29.376Z,14.23
2023-05-10T10:47:34.019Z,14.35
2023-05-10T10:48:36.792Z,14.40
2023-05-10T10:49:39.436Z,14.44
2023-05-10T10:50:47.761Z,14.48
2023-05-10T10:52:07.985Z,14.19
2023-05-10T10:53:12.927Z,14.56
2023-05-10T10:54:27.772Z,14.70
2023-05-10T10:55:30.880Z,14.91
2023-05-10T10:56:32.427Z,14.91
2023-05-10T10:57:43.024Z,15.03
2023-05-10T10:58:51.080Z,15.22
2023-05-10T11:00:13.346Z,15.45
2023-05-10T11:01:16.302Z,15.57
2023-05-10T11:02:36.502Z,15.58
2023-05-10T11:03:40.794Z,15.57
2023-05-10T11:04:44.036Z,15.56
2023-05-10T11:05:49.522Z,15.59
2023-05-10T11:06:50.988Z,15.62
2023-05-10T11:08:07.265Z,15.71
2023-05-10T11:09:09.960Z,15.37
2023-05-10T11:10:11.903Z,15.51
2023-05-10T11:11:15.619Z,15.44
2023-05-10T11:12:17.210Z,15.51
2023-05-10T11:13:27.508Z,15.29
2023-05-10T11:14:32.600Z,15.46
2023-05-10T11:15:37.853Z,15.42
2023-05-10T11:16:45.936Z,15.60
2023-05-10T11:17:52.898Z,15.66
2023-05-10T11:18:55.058Z,15.83
2023-05-10T11:20:11.943Z,15.84
2023-05-10T11:21:16.229Z,15.78
2023-05-10T11:22:18.976Z,15.94
2023-05-10T11:23:22.027Z,16.03
2023-05-10T11:24:24.057Z,16.15
2023-05-10T11:25:29.281Z,16.20
2023-05-10T11:26:36.074Z,16.36
2023-05-10T11:27:38.501Z,16.45
2023-05-10T11:28:49.784Z,16.44
2023-05-10T11:29:54.219Z,16.38
2023-05-10T11:30:55.920Z,16.40
2023-05-10T11:32:03.264Z,16.30
2023-05-10T11:33:04.886Z,16.17
2023-05-10T11:34:06.464Z,15.99
2023-05-10T11:35:08.950Z,15.82
2023-05-10T11:36:17.641Z,15.89
2023-05-10T11:37:19.092Z,15.98
2023-05-10T11:38:22.884Z,15.92
2023-05-10T11:39:31.010Z,15.93
2023-05-10T11:40:32.451Z,16.08
2023-05-10T11:41:34.273Z,16.17
2023-05-10T11:42:39.561Z,16.19
2023-05-10T11:43:41.417Z,16.38
2023-05-10T11:44:44.380Z,16.43
2023-05-10T11:45:46.030Z,16.53
2023-05-10T11:46:47.611Z,16.67
2023-05-10T11:47:49.853Z,16.77
2023-05-10T11:49:01.612Z,16.40
2023-05-10T11:50:06.216Z,16.59
2023-05-10T11:51:08.454Z,16.68
2023-05-10T11:52:13.092Z,16.71
2023-05-10T11:53:14.537Z,16.75
2023-05-10T11:54:16.020Z,16.45
2023-05-10T11:55:17.488Z,16.71
2023-05-10T11:56:19.094Z,16.74
2023-05-10T11:57:27.123Z,16.90
2023-05-10T11:58:31.314Z,16.90
2023-05-10T11:59:32.912Z,16.85
2023-05-10T12:00:34.661Z,16.85
2023-05-10T12:01:38.548Z,16.86
2023-05-10T12:02:40.299Z,16.81
2023-05-10T12:03:42.188Z,16.75
2023-05-10T12:04:46.054Z,16.58
2023-05-10T12:05:47.667Z,16.69
2023-05-10T12:06:49.320Z,16.56
2023-05-10T12:07:51.110Z,16.58
2023-05-10T12:08:54.552Z,16.30
2023-05-10T12:10:04.796Z,16.27
2023-05-10T12:11:11.424Z,16.28
2023-05-10T12:12:18.956Z,16.25
2023-05-10T12:13:21.971Z,16.41
2023-05-10T12:14:23.633Z,16.43
2023-05-10T12:15:25.999Z,16.54
2023-05-10T12:16:30.212Z,16.55
2023-05-10T12:17:31.993Z,16.60
2023-05-10T12:18:33.627Z,16.51
2023-05-10T12:19:39.582Z,16.37
2023-05-10T12:20:41.574Z,16.66
2023-05-10T12:21:45.632Z,16.44
2023-05-10T12:22:54.158Z,16.57
2023-05-10T12:24:06.394Z,16.46
2023-05-10T12:25:09.306Z,16.43
2023-05-10T12:26:13.750Z,16.63
2023-05-10T12:27:15.720Z,16.52
2023-05-10T12:28:20.034Z,16.51
2023-05-10T12:29:21.868Z,16.53
2023-05-10T12:30:24.161Z,16.63
2023-05-10T12:31:25.618Z,16.66
2023-05-10T12:32:42.715Z,16.73
2023-05-10T12:33:50.295Z,16.77
2023-05-10T12:34:53.399Z,16.51
2023-05-10T12:35:55.613Z,16.73
2023-05-10T12:36:57.118Z,16.81
2023-05-10T12:37:58.658Z,16.87
2023-05-10T12:39:03.635Z,16.95
2023-05-10T12:40:09.101Z,16.88
2023-05-10T12:41:11.756Z,16.87
2023-05-10T12:42:13.341Z,16.80
2023-05-10T12:43:14.772Z,16.87
2023-05-10T12:44:16.238Z,16.90
2023-05-10T12:45:18.485Z,16.81
2023-05-10T12:46:20.051Z,17.02
2023-05-10T12:47:21.529Z,16.87
2023-05-10T12:48:23.349Z,16.91
2023-05-10T12:49:27.562Z,16.82
2023-05-10T12:50:29.060Z,16.93
2023-05-10T12:51:32.913Z,17.13
2023-05-10T12:52:36.546Z,17.23
2023-05-10T12:53:38.235Z,17.23
2023-05-10T12:54:39.912Z,17.23
2023-05-10T12:55:42.582Z,17.45
2023-05-10T12:56:44.304Z,17.35
2023-05-10T12:57:45.857Z,17.16
2023-05-10T12:58:49.138Z,17.28
2023-05-10T12:59:50.792Z,17.41
2023-05-10T13:00:52.948Z,17.30
2023-05-10T13:01:56.682Z,17.40
2023-05-10T13:02:58.139Z,17.34
2023-05-10T13:04:01.054Z,17.29
2023-05-10T13:05:02.549Z,17.32
2023-05-10T13:06:04.127Z,17.39
2023-05-10T13:07:06.084Z,17.41
2023-05-10T13:08:07.569Z,17.37
2023-05-10T13:09:09.023Z,17.30
2023-05-10T13:10:10.717Z,17.30
2023-05-10T13:11:12.264Z,17.28
2023-05-10T13:12:13.763Z,17.26
2023-05-10T13:13:16.177Z,17.30
2023-05-10T13:14:17.648Z,17.23
2023-05-10T13:15:19.119Z,17.25
2023-05-10T13:16:20.731Z,17.13
2023-05-10T13:17:22.224Z,16.97
2023-05-10T13:18:23.789Z,17.08
2023-05-10T13:19:25.470Z,17.07
2023-05-10T13:20:27.413Z,16.99
2023-05-10T13:21:29.258Z,16.98
2023-05-10T13:22:39.825Z,16.80
2023-05-10T13:23:41.899Z,16.20
2023-05-10T13:24:43.333Z,16.02
2023-05-10T13:25:47.314Z,15.45
2023-05-10T13:26:49.414Z,15.22
2023-05-10T13:27:55.712Z,15.09
2023-05-10T13:28:57.264Z,14.59
2023-05-10T13:30:00.271Z,14.38
2023-05-10T13:31:01.861Z,14.29
2023-05-10T13:32:03.433Z,13.84
2023-05-10T13:33:04.944Z,13.91
2023-05-10T13:34:06.425Z,13.76
2023-05-10T13:35:08.589Z,13.69
2023-05-10T13:36:10.036Z,13.89
2023-05-10T13:37:11.495Z,13.95
2023-05-10T13:38:15.860Z,14.06
2023-05-10T13:39:17.758Z,14.11
2023-05-10T13:40:19.396Z,14.17
2023-05-10T13:41:21.039Z,14.17
2023-05-10T13:42:25.456Z,14.17